createdAt,value
2023-05-20T00:00:06.716Z,11.48
2023-05-20T00:02:34.741Z,11.39
2023-05-20T00:05:03.102Z,11.29
2023-05-20T00:07:31.180Z,11.28
2023-05-20T00:09:59.678Z,11.22
2023-05-20T00:12:27.663Z,11.25
2023-05-20T00:14:57.031Z,11.26
2023-05-20T00:17:26.477Z,11.29
2023-05-20T00:19:54.609Z,11.08
2023-05-20T00:22:23.868Z,11.27
2023-05-20T00:24:51.821Z,11.23
2023-05-20T00:27:19.811Z,11.22
2023-05-20T00:29:47.763Z,11.14
2023-05-20T00:32:17.163Z,11.09
2023-05-20T00:34:45.256Z,11.12
2023-05-20T00:37:13.246Z,11.11
2023-05-20T00:39:41.275Z,11.09
2023-05-20T00:42:09.227Z,11.10
2023-05-20T00:44:37.174Z,11.01
2023-05-20T00:47:05.509Z,11.06
2023-05-20T00:49:35.031Z,10.92
2023-05-20T00:52:03.070Z,11.02
2023-05-20T00:54:31.255Z,11.08
2023-05-20T00:57:00.518Z,11.03
2023-05-20T00:59:28.609Z,11.01
2023-05-20T01:01:58.193Z,10.95
2023-05-20T01:04:26.626Z,11.07
2023-05-20T01:06:57.485Z,10.90
2023-05-20T01:09:26.152Z,10.91
2023-05-20T01:12:04.218Z,10.96
2023-05-20T01:14:52.353Z,10.88
2023-05-20T01:17:22.546Z,10.81
2023-05-20T01:19:51.428Z,10.91
2023-05-20T01:22:21.305Z,10.93
2023-05-20T01:24:53.508Z,10.88
2023-05-20T01:27:23.631Z,10.76
2023-05-20T01:29:54.297Z,10.79
2023-05-20T01:32:25.836Z,10.76
2023-05-20T01:34:56.440Z,10.69
2023-05-20T01:37:26.323Z,10.61
2023-05-20T01:39:57.663Z,10.61
2023-05-20T01:42:29.006Z,10.65
2023-05-20T01:44:57.116Z,10.60
2023-05-20T01:47:25.072Z,10.55
2023-05-20T01:49:54.131Z,10.54
2023-05-20T01:52:22.924Z,10.49
2023-05-20T01:54:51.898Z,10.45
2023-05-20T01:57:22.540Z,10.45
2023-05-20T01:59:50.960Z,10.39
2023-05-20T02:02:19.084Z,10.36
2023-05-20T02:04:49.131Z,10.33
2023-05-20T02:07:18.663Z,10.27
2023-05-20T02:09:46.899Z,10.26
2023-05-20T02:12:17.361Z,10.18
2023-05-20T02:14:49.241Z,10.21
2023-05-20T02:17:17.816Z,10.17
2023-05-20T02:19:45.947Z,10.18
2023-05-20T02:22:14.473Z,10.18
2023-05-20T02:24:43.375Z,10.14
2023-05-20T02:27:11.917Z,10.13
2023-05-20T02:29:40.031Z,10.09
2023-05-20T02:32:09.917Z,10.10
2023-05-20T02:34:37.846Z,10.06
2023-05-20T02:37:06.263Z,10.03
2023-05-20T02:39:34.232Z,9.99
2023-05-20T02:42:02.147Z,9.94
2023-05-20T02:44:30.215Z,9.89
2023-05-20T02:46:58.157Z,9.88
2023-05-20T02:49:27.515Z,9.85
2023-05-20T02:51:55.771Z,9.82
2023-05-20T02:54:23.816Z,9.76
2023-05-20T02:56:51.748Z,9.73
2023-05-20T02:59:19.745Z,9.65
2023-05-20T03:01:47.798Z,9.64
2023-05-20T03:04:16.116Z,9.61
2023-05-20T03:06:46.491Z,9.60
2023-05-20T03:09:15.159Z,9.56
2023-05-20T03:11:43.095Z,9.57
2023-05-20T03:14:11.239Z,9.54
2023-05-20T03:16:39.437Z,9.51
2023-05-20T03:19:07.384Z,9.54
2023-05-20T03:21:35.476Z,9.56
2023-05-20T03:24:05.491Z,9.58
2023-05-20T03:26:37.548Z,9.61
2023-05-20T03:29:06.761Z,9.64
2023-05-20T03:31:34.736Z,9.72
2023-05-20T03:34:03.149Z,9.74
2023-05-20T03:36:31.148Z,9.77
2023-05-20T03:38:59.108Z,9.81
2023-05-20T03:41:28.530Z,9.91
2023-05-20T03:43:56.562Z,10.17
2023-05-20T03:46:24.562Z,10.39
2023-05-20T03:48:52.532Z,10.47
2023-05-20T03:51:20.540Z,10.37
2023-05-20T03:53:48.788Z,10.71
2023-05-20T03:56:16.783Z,10.92
2023-05-20T03:58:46.331Z,10.65
2023-05-20T04:01:14.345Z,10.42
2023-05-20T04:03:43.724Z,10.25
2023-05-20T04:06:11.788Z,10.20
2023-05-20T04:08:39.775Z,10.25
2023-05-20T04:11:07.731Z,10.24
2023-05-20T04:13:35.731Z,10.28
2023-05-20T04:16:05.902Z,10.29
2023-05-20T04:18:33.905Z,10.19
2023-05-20T04:21:01.961Z,10.18
2023-05-20T04:23:29.906Z,10.17
2023-05-20T04:26:04.231Z,10.22
2023-05-20T04:28:32.229Z,10.18
2023-05-20T04:31:02.693Z,10.17
2023-05-20T04:33:32.905Z,10.15
2023-05-20T04:36:01.528Z,10.16
2023-05-20T04:38:30.352Z,10.17
2023-05-20T04:40:58.943Z,10.23
2023-05-20T04:43:30.216Z,10.21
2023-05-20T04:45:59.748Z,10.26
2023-05-20T04:48:27.805Z,10.24
2023-05-20T04:50:57.150Z,10.18
2023-05-20T04:53:25.259Z,10.27
2023-05-20T04:55:56.782Z,10.35
2023-05-20T04:58:25.513Z,10.41
2023-05-20T05:00:54.036Z,10.36
2023-05-20T05:03:22.076Z,10.40
2023-05-20T05:05:50.030Z,10.46
2023-05-20T05:08:19.758Z,10.39
2023-05-20T05:10:47.625Z,10.45
2023-05-20T05:13:15.769Z,10.44
2023-05-20T05:15:43.774Z,10.39
2023-05-20T05:18:11.890Z,10.44
2023-05-20T05:20:39.933Z,10.46
2023-05-20T05:23:07.876Z,10.54
2023-05-20T05:25:37.222Z,10.49
2023-05-20T05:28:05.613Z,10.58
2023-05-20T05:30:33.606Z,10.72
2023-05-20T05:33:01.639Z,10.69
2023-05-20T05:35:29.618Z,10.81
2023-05-20T05:37:57.570Z,10.85
2023-05-20T05:40:26.016Z,10.94
2023-05-20T05:42:55.304Z,11.06
2023-05-20T05:45:23.200Z,11.08
2023-05-20T05:47:51.131Z,11.21
2023-05-20T05:50:19.160Z,11.26
2023-05-20T05:52:47.131Z,11.36
2023-05-20T05:55:15.029Z,11.26
2023-05-20T05:57:43.054Z,11.36
2023-05-20T06:00:14.013Z,11.39
2023-05-20T06:02:42.600Z,11.48
2023-05-20T06:05:11.492Z,11.44
2023-05-20T06:07:39.558Z,11.52
2023-05-20T06:10:08.925Z,11.52
2023-05-20T06:12:36.873Z,11.50
2023-05-20T06:15:06.884Z,11.43
2023-05-20T06:17:36.204Z,11.38
2023-05-20T06:20:04.720Z,11.50
2023-05-20T06:22:32.607Z,11.63
2023-05-20T06:25:02.496Z,11.65
2023-05-20T06:27:30.609Z,11.70
2023-05-20T06:29:58.611Z,11.71
2023-05-20T06:32:26.581Z,11.79
2023-05-20T06:34:55.991Z,11.83
2023-05-20T06:37:25.076Z,11.82
2023-05-20T06:39:55.141Z,11.80
2023-05-20T06:42:23.140Z,11.80
2023-05-20T06:44:51.061Z,11.76
2023-05-20T06:47:19.586Z,11.81
2023-05-20T06:49:47.824Z,11.80
2023-05-20T06:52:17.145Z,11.85
2023-05-20T06:54:45.504Z,11.86
2023-05-20T06:57:13.408Z,11.92
2023-05-20T06:59:41.625Z,12.08
2023-05-20T07:02:09.622Z,12.17
2023-05-20T07:04:37.663Z,12.02
2023-05-20T07:07:05.657Z,12.16
2023-05-20T07:09:34.958Z,12.35
2023-05-20T07:12:03.594Z,12.32
2023-05-20T07:14:31.512Z,12.35
2023-05-20T07:16:59.586Z,12.38
2023-05-20T07:19:27.667Z,12.40
2023-05-20T07:21:55.633Z,12.59
2023-05-20T07:24:23.526Z,12.52
2023-05-20T07:26:52.788Z,12.71
2023-05-20T07:29:20.759Z,12.90
2023-05-20T07:31:48.695Z,13.12
2023-05-20T07:34:17.014Z,13.21
2023-05-20T07:36:45.112Z,13.15
2023-05-20T07:39:15.345Z,13.16
2023-05-20T07:41:43.415Z,13.16
2023-05-20T07:44:13.350Z,13.28
2023-05-20T07:46:41.878Z,13.32
2023-05-20T07:49:10.100Z,13.51
2023-05-20T07:51:38.388Z,13.31
2023-05-20T07:54:06.720Z,13.34
2023-05-20T07:56:34.731Z,13.39
2023-05-20T07:59:03.354Z,13.70
2023-05-20T08:01:32.898Z,13.93
2023-05-20T08:04:00.919Z,13.89
2023-05-20T08:06:29.902Z,14.02
2023-05-20T08:08:58.018Z,14.08
2023-05-20T08:11:26.290Z,14.23
2023-05-20T08:13:54.356Z,14.27
2023-05-20T08:16:23.360Z,14.36
2023-05-20T08:18:52.708Z,14.62
2023-05-20T08:21:21.667Z,14.81
2023-05-20T08:23:49.649Z,14.69
2023-05-20T08:26:17.552Z,14.70
2023-05-20T08:28:45.645Z,14.71
2023-05-20T08:31:13.612Z,14.73
2023-05-20T08:33:41.671Z,14.89
2023-05-20T08:36:11.027Z,15.02
2023-05-20T08:38:38.997Z,15.13
2023-05-20T08:41:07.041Z,15.22
2023-05-20T08:43:35.222Z,15.65
2023-05-20T08:46:06.393Z,15.78
2023-05-20T08:48:36.887Z,15.68
2023-05-20T08:51:07.199Z,15.76
2023-05-20T08:53:36.616Z,15.78
2023-05-20T08:56:04.681Z,15.66
2023-05-20T08:58:33.733Z,15.48
2023-05-20T09:01:03.094Z,15.72
2023-05-20T09:03:32.124Z,16.05
2023-05-20T09:06:06.584Z,16.22
2023-05-20T09:08:36.551Z,16.20
2023-05-20T09:11:04.740Z,15.99
2023-05-20T09:13:34.016Z,16.22
2023-05-20T09:16:02.580Z,16.12
2023-05-20T09:18:31.460Z,15.86
2023-05-20T09:20:59.538Z,15.64
2023-05-20T09:23:27.906Z,15.84
2023-05-20T09:25:57.284Z,16.06
2023-05-20T09:28:26.174Z,16.02
2023-05-20T09:30:59.563Z,16.31
2023-05-20T09:33:32.100Z,16.44
2023-05-20T09:36:05.691Z,16.11
2023-05-20T09:38:39.442Z,16.12
2023-05-20T09:41:12.915Z,16.37
2023-05-20T09:43:42.438Z,16.45
2023-05-20T09:46:11.833Z,16.32
2023-05-20T09:48:40.896Z,16.41
2023-05-20T09:51:09.187Z,16.10
2023-05-20T09:53:37.540Z,16.11
2023-05-20T09:56:06.314Z,16.21
2023-05-20T09:58:37.837Z,16.12
2023-05-20T10:01:07.240Z,16.30
2023-05-20T10:03:36.084Z,16.52
2023-05-20T10:06:28.925Z,16.43
2023-05-20T10:09:33.481Z,16.23
2023-05-20T10:12:16.597Z,16.11
2023-05-20T10:15:02.200Z,16.04
2023-05-20T10:17:42.840Z,16.14
2023-05-20T10:20:12.209Z,16.20
2023-05-20T10:22:41.064Z,16.12
2023-05-20T10:25:27.235Z,16.02
2023-05-20T10:28:08.770Z,15.87
2023-05-20T10:30:39.218Z,16.06
2023-05-20T10:33:08.660Z,16.18
2023-05-20T10:35:36.659Z,16.30
2023-05-20T10:38:12.834Z,16.50
2023-05-20T10:40:41.276Z,16.84
2023-05-20T10:43:14.331Z,16.84
2023-05-20T10:45:55.737Z,16.74
2023-05-20T10:48:30.023Z,16.41
2023-05-20T10:51:00.559Z,16.22
2023-05-20T10:53:33.358Z,15.99
2023-05-20T10:56:02.579Z,16.77
2023-05-20T10:58:39.105Z,17.11
2023-05-20T11:01:08.728Z,17.26
2023-05-20T11:03:37.455Z,17.43
2023-05-20T11:06:14.904Z,16.93
2023-05-20T11:08:45.401Z,16.91
2023-05-20T11:11:14.871Z,16.97
2023-05-20T11:13:43.121Z,17.24
2023-05-20T11:16:12.726Z,17.33
2023-05-20T11:18:40.937Z,16.91
2023-05-20T11:21:09.060Z,16.97
2023-05-20T11:23:39.888Z,17.04
2023-05-20T11:26:08.859Z,16.84
2023-05-20T11:28:37.546Z,16.86
2023-05-20T11:31:06.624Z,16.99
2023-05-20T11:33:35.985Z,16.96
2023-05-20T11:36:08.663Z,17.08
2023-05-20T11:38:42.981Z,17.75
2023-05-20T11:41:11.045Z,18.24
2023-05-20T11:43:39.076Z,19.24
2023-05-20T11:46:07.208Z,19.08
2023-05-20T11:48:36.540Z,19.15
2023-05-20T11:51:04.888Z,18.98
2023-05-20T11:53:32.970Z,18.83
2023-05-20T11:56:02.768Z,18.38
2023-05-20T11:58:32.095Z,17.83
2023-05-20T12:01:13.382Z,17.46
2023-05-20T12:03:50.006Z,17.35
2023-05-20T12:06:18.554Z,17.89
2023-05-20T12:08:47.506Z,18.45
2023-05-20T12:11:15.933Z,18.27
2023-05-20T12:13:43.958Z,18.95
2023-05-20T12:16:12.202Z,19.41
2023-05-20T12:18:40.311Z,19.30
2023-05-20T12:21:10.383Z,19.39
2023-05-20T12:23:38.441Z,18.66
2023-05-20T12:26:06.649Z,18.64
2023-05-20T12:28:34.611Z,18.29
2023-05-20T12:31:04.089Z,18.28
2023-05-20T12:33:32.201Z,18.35
2023-05-20T12:36:00.786Z,18.42
2023-05-20T12:38:30.150Z,18.69
2023-05-20T12:40:58.250Z,18.67
2023-05-20T12:43:26.292Z,18.76
2023-05-20T12:45:54.588Z,18.42
2023-05-20T12:48:22.612Z,18.43
2023-05-20T12:50:50.723Z,18.82
2023-05-20T12:53:18.686Z,18.96
2023-05-20T12:55:48.043Z,18.60
2023-05-20T12:58:16.018Z,18.86
2023-05-20T13:00:44.073Z,18.34
2023-05-20T13:03:12.152Z,18.18
2023-05-20T13:05:40.253Z,18.49
2023-05-20T13:08:09.056Z,18.73
2023-05-20T13:10:37.424Z,18.75
2023-05-20T13:13:07.261Z,18.99
2023-05-20T13:15:35.576Z,19.23
2023-05-20T13:18:06.779Z,19.27
2023-05-20T13:20:35.541Z,19.68
2023-05-20T13:23:03.751Z,19.25
2023-05-20T13:25:31.888Z,19.05
2023-05-20T13:27:59.942Z,19.40
2023-05-20T13:30:29.354Z,19.66
2023-05-20T13:32:57.440Z,19.63
2023-05-20T13:35:25.623Z,19.61
2023-05-20T13:37:53.562Z,19.10
2023-05-20T13:40:22.462Z,19.31
2023-05-20T13:42:50.440Z,19.52
2023-05-20T13:45:18.920Z,19.39
2023-05-20T13:47:48.421Z,19.34
2023-05-20T13:50:16.592Z,19.06
2023-05-20T13:52:44.588Z,19.30
2023-05-20T13:55:12.701Z,19.46
2023-05-20T13:57:40.673Z,19.63
2023-05-20T14:00:10.485Z,19.80
2023-05-20T14:02:38.416Z,19.87
2023-05-20T14:05:09.267Z,19.96
2023-05-20T14:07:37.747Z,19.78
2023-05-20T14:10:09.117Z,19.95
2023-05-20T14:12:37.002Z,20.46
2023-05-20T14:15:05.714Z,20.15
2023-05-20T14:17:33.657Z,20.50
2023-05-20T14:20:01.637Z,20.45
2023-05-20T14:22:31.033Z,20.32
2023-05-20T14:24:59.597Z,20.68
2023-05-20T14:27:27.612Z,20.99
2023-05-20T14:29:55.564Z,21.23
2023-05-20T14:32:23.742Z,21.06
2023-05-20T14:34:53.753Z,21.02
2023-05-20T14:37:24.162Z,21.31
2023-05-20T14:39:53.464Z,21.75
2023-05-20T14:42:21.579Z,22.15
2023-05-20T14:44:49.940Z,21.73
2023-05-20T14:47:21.389Z,21.54
2023-05-20T14:49:51.169Z,21.50
2023-05-20T14:52:19.631Z,21.62
2023-05-20T14:54:47.698Z,21.21
2023-05-20T14:57:17.032Z,21.35
2023-05-20T14:59:45.922Z,21.63
2023-05-20T15:02:15.531Z,21.28
2023-05-20T15:04:46.278Z,21.19
2023-05-20T15:07:14.364Z,21.39
2023-05-20T15:09:43.657Z,21.60
2023-05-20T15:12:12.433Z,21.40
2023-05-20T15:14:41.773Z,21.68
2023-05-20T15:17:09.923Z,21.69
2023-05-20T15:19:41.213Z,22.14
2023-05-20T15:22:09.602Z,21.90
2023-05-20T15:24:37.622Z,21.41
2023-05-20T15:27:06.626Z,21.35
2023-05-20T15:29:34.747Z,21.43
2023-05-20T15:32:04.316Z,21.75
2023-05-20T15:34:32.196Z,21.83
2023-05-20T15:37:00.131Z,21.87
2023-05-20T15:39:28.351Z,22.20
2023-05-20T15:41:58.723Z,22.00
2023-05-20T15:44:28.693Z,21.98
2023-05-20T15:46:57.012Z,22.49
2023-05-20T15:49:26.327Z,22.47
2023-05-20T15:52:02.861Z,22.11
2023-05-20T15:54:32.138Z,21.93
2023-05-20T15:57:00.216Z,21.71
2023-05-20T15:59:28.170Z,22.35
2023-05-20T16:01:56.282Z,22.10
2023-05-20T16:04:24.550Z,22.05
2023-05-20T16:06:53.897Z,22.12
2023-05-20T16:09:22.360Z,22.45
2023-05-20T16:11:50.410Z,22.55
2023-05-20T16:14:18.553Z,22.68
2023-05-20T16:16:46.664Z,22.64
2023-05-20T16:19:14.719Z,22.70
2023-05-20T16:21:42.681Z,22.64
2023-05-20T16:24:12.354Z,21.83
2023-05-20T16:26:40.138Z,21.30
2023-05-20T16:29:08.174Z,22.27
2023-05-20T16:31:36.261Z,21.95
2023-05-20T16:34:04.818Z,22.28
2023-05-20T16:36:32.838Z,22.99
2023-05-20T16:39:02.705Z,23.43
2023-05-20T16:41:32.282Z,22.86
2023-05-20T16:44:03.034Z,22.62
2023-05-20T16:46:31.010Z,22.22
2023-05-20T16:48:59.096Z,22.69
2023-05-20T16:51:27.151Z,22.29
2023-05-20T16:53:55.169Z,22.01
2023-05-20T16:56:23.636Z,21.53
2023-05-20T16:58:54.128Z,20.76
2023-05-20T17:01:22.975Z,20.27
2023-05-20T17:03:51.104Z,19.93
2023-05-20T17:06:19.182Z,19.72
2023-05-20T17:08:47.251Z,19.68
2023-05-20T17:11:15.593Z,19.54
2023-05-20T17:13:43.515Z,19.54
2023-05-20T17:16:12.953Z,19.53
2023-05-20T17:18:40.975Z,19.50
2023-05-20T17:21:08.951Z,19.35
2023-05-20T17:23:36.909Z,19.32
2023-05-20T17:26:05.514Z,19.25
2023-05-20T17:28:33.446Z,19.21
2023-05-20T17:31:01.390Z,19.20
2023-05-20T17:33:30.788Z,19.17
2023-05-20T17:35:59.261Z,19.09
2023-05-20T17:38:27.311Z,19.15
2023-05-20T17:40:55.927Z,19.14
2023-05-20T17:43:24.997Z,19.15
2023-05-20T17:45:53.015Z,19.12
2023-05-20T17:48:21.122Z,19.10
2023-05-20T17:50:50.636Z,19.10
2023-05-20T17:53:21.008Z,19.09
2023-05-20T17:55:49.713Z,19.02
2023-05-20T17:58:17.874Z,18.94
2023-05-20T18:00:45.821Z,18.88
2023-05-20T18:03:13.985Z,18.86
2023-05-20T18:05:42.264Z,18.86
2023-05-20T18:08:11.747Z,18.79
2023-05-20T18:10:39.778Z,18.76
2023-05-20T18:13:07.906Z,18.76
2023-05-20T18:15:35.928Z,18.77
2023-05-20T18:18:04.055Z,18.65
2023-05-20T18:20:32.099Z,18.70
2023-05-20T18:23:00.086Z,18.63
2023-05-20T18:25:29.365Z,18.64
2023-05-20T18:27:57.365Z,18.56
2023-05-20T18:30:25.395Z,18.51
2023-05-20T18:32:53.402Z,18.51
2023-05-20T18:35:22.415Z,18.44
2023-05-20T18:37:51.340Z,18.37
2023-05-20T18:40:20.598Z,18.25
2023-05-20T18:42:49.955Z,18.29
2023-05-20T18:45:18.063Z,18.32
2023-05-20T18:47:46.249Z,18.17
2023-05-20T18:50:14.219Z,18.17
2023-05-20T18:52:42.160Z,18.15
2023-05-20T18:55:10.669Z,18.15
2023-05-20T18:57:39.312Z,18.10
2023-05-20T19:00:12.120Z,18.13
2023-05-20T19:02:40.715Z,18.09
2023-05-20T19:05:11.435Z,18.07
2023-05-20T19:07:39.947Z,18.17
2023-05-20T19:10:10.178Z,18.05
2023-05-20T19:12:38.171Z,18.12
2023-05-20T19:15:09.444Z,18.09
2023-05-20T19:17:37.524Z,18.03
2023-05-20T19:20:08.203Z,17.95
2023-05-20T19:22:36.182Z,17.97
2023-05-20T19:25:05.226Z,17.96
2023-05-20T19:27:33.149Z,17.82
2023-05-20T19:30:01.614Z,17.81
2023-05-20T19:32:31.081Z,17.81
2023-05-20T19:34:59.027Z,17.87
2023-05-20T19:37:26.989Z,17.92
2023-05-20T19:39:55.026Z,17.64
2023-05-20T19:42:23.213Z,17.83
2023-05-20T19:44:51.163Z,17.70
2023-05-20T19:47:19.268Z,17.78
2023-05-20T19:49:48.669Z,17.68
2023-05-20T19:52:16.689Z,17.73
2023-05-20T19:54:44.603Z,17.64
2023-05-20T19:57:12.569Z,17.68
2023-05-20T19:59:40.564Z,17.67
2023-05-20T20:02:08.629Z,17.53
2023-05-20T20:04:37.218Z,17.66
2023-05-20T20:07:08.032Z,17.48
2023-05-20T20:09:36.070Z,17.55
2023-05-20T20:12:04.421Z,17.53
2023-05-20T20:14:32.396Z,17.71
2023-05-20T20:17:00.907Z,17.62
2023-05-20T20:19:29.381Z,17.56
2023-05-20T20:21:58.157Z,17.60
2023-05-20T20:24:27.611Z,17.60
2023-05-20T20:26:57.381Z,17.50
2023-05-20T20:29:25.113Z,17.50
2023-05-20T20:31:53.243Z,17.69
2023-05-20T20:34:21.961Z,17.68
2023-05-20T20:36:51.177Z,17.57
2023-05-20T20:39:19.901Z,17.57
2023-05-20T20:41:50.735Z,17.60
2023-05-20T20:44:22.389Z,17.54
2023-05-20T20:46:51.405Z,17.62
2023-05-20T20:49:19.749Z,17.61
2023-05-20T20:51:48.682Z,17.35
2023-05-20T20:54:17.075Z,17.48
2023-05-20T20:56:46.986Z,17.51
2023-05-20T20:59:16.658Z,17.34
2023-05-20T21:01:45.120Z,17.34
2023-05-20T21:04:13.813Z,17.40
2023-05-20T21:06:45.828Z,17.31
2023-05-20T21:09:14.058Z,17.28
2023-05-20T21:11:42.851Z,17.30
2023-05-20T21:14:11.252Z,17.24
2023-05-20T21:16:42.105Z,17.22
2023-05-20T21:19:10.329Z,17.18
2023-05-20T21:21:38.315Z,17.13
2023-05-20T21:24:07.013Z,17.05
2023-05-20T21:26:35.089Z,16.94
2023-05-20T21:29:03.147Z,16.94
2023-05-20T21:31:31.349Z,16.90
2023-05-20T21:34:00.664Z,16.90
2023-05-20T21:36:28.648Z,16.89
2023-05-20T21:38:56.654Z,16.79
2023-05-20T21:41:24.759Z,16.72
2023-05-20T21:43:53.215Z,16.68
2023-05-20T21:46:21.262Z,16.60
2023-05-20T21:48:49.212Z,16.57
2023-05-20T21:51:18.519Z,16.46
2023-05-20T21:53:46.470Z,16.45
2023-05-20T21:56:14.603Z,16.52
2023-05-20T21:58:42.516Z,16.45
2023-05-20T22:01:10.779Z,16.42
2023-05-20T22:03:39.889Z,16.36
2023-05-20T22:06:08.088Z,16.33
2023-05-20T22:08:37.359Z,16.41
2023-05-20T22:11:07.129Z,16.41
2023-05-20T22:13:41.195Z,16.38
2023-05-20T22:16:09.945Z,16.40
2023-05-20T22:18:38.401Z,16.36
2023-05-20T22:21:06.994Z,16.30
2023-05-20T22:23:34.894Z,16.33
2023-05-20T22:26:04.879Z,16.26
2023-05-20T22:28:32.963Z,16.29
2023-05-20T22:31:01.089Z,16.23
2023-05-20T22:33:29.004Z,16.29
2023-05-20T22:35:58.101Z,16.30
2023-05-20T22:38:26.075Z,16.03
2023-05-20T22:40:54.035Z,16.01
2023-05-20T22:43:24.661Z,15.99
2023-05-20T22:45:52.677Z,16.17
2023-05-20T22:48:22.843Z,16.08
2023-05-20T22:50:51.254Z,16.10
2023-05-20T22:53:19.217Z,16.07
2023-05-20T22:55:47.433Z,16.13
2023-05-20T22:58:16.308Z,16.20
2023-05-20T23:00:45.832Z,16.08
2023-05-20T23:03:13.899Z,15.95
2023-05-20T23:05:41.830Z,15.91
2023-05-20T23:08:09.786Z,15.94
2023-05-20T23:10:37.947Z,15.87
2023-05-20T23:13:05.931Z,15.82
2023-05-20T23:15:33.937Z,15.82
2023-05-20T23:18:03.517Z,15.85
2023-05-20T23:20:31.556Z,15.73
2023-05-20T23:23:05.644Z,15.73
2023-05-20T23:25:39.368Z,15.72
2023-05-20T23:28:07.558Z,15.67
2023-05-20T23:30:36.580Z,15.65
2023-05-20T23:33:05.953Z,15.72
2023-05-20T23:35:34.520Z,15.60
2023-05-20T23:38:02.773Z,15.64
2023-05-20T23:40:30.709Z,15.63
2023-05-20T23:42:58.681Z,15.64
2023-05-20T23:45:26.633Z,15.58
2023-05-20T23:47:55.390Z,15.52
2023-05-20T23:50:24.807Z,15.56
2023-05-20T23:52:52.701Z,15.28
2023-05-20T23:55:20.755Z,15.36
2023-05-20T23:57:49.687Z,15.37
